Aviation Digital Data Service (ADDS)

Output produced by METARs form (2245 UTC 28 November 2014)
found at http://www.aviationweather.gov/adds/metars/
 
KJST 282154Z AUTO 26008KT 10SM CLR M06/M12 A3014 RMK AO2 SLP242 T10611122
KJST 282054Z AUTO 26011KT 10SM FEW100 M06/M12 A3014 RMK AO2 SLP241 T10561122 56008
KJST 281954Z AUTO 27012KT 10SM CLR M06/M12 A3015 RMK AO2 SLP243 T10561122
KJST 281943Z AUTO 26011KT 10SM FEW026 M06/M13 A3015 RMK AO2 T10611128
KJST 281854Z AUTO 26015G18KT 10SM BKN026 OVC100 M06/M12 A3016 RMK AO2 SLP245 T10561117 $
KJST 281808Z AUTO 27008KT 10SM OVC024 M06/M12 A3017 RMK AO2 T10611117 $
KJST 281754Z AUTO 30009KT 10SM M07/M12 A3017 RMK AO2 SLP251 60000 T10671117 11056 21067 $
KJST 281654Z AUTO 28014KT 10SM OVC027 M06/M12 A3019 RMK AO2 SNE16 SLP256 P0000 T10611117
KJST 281554Z AUTO 30013KT 8SM -SN SCT017 OVC026 M06/M10 A3020 RMK AO2 SLP261 P0000 T10611100
KJST 281540Z AUTO 30013KT 5SM -SN BKN015 BKN023 OVC029 M06/M10 A3020 RMK AO2 P0000 T10611100
KJST 281521Z AUTO 29011KT 3SM -SN BKN014 BKN022 OVC029 M07/M09 A3020 RMK AO2 P0000 T10671094
KJST 281454Z AUTO 29011KT 1SM -SN BKN012 OVC019 M07/M09 A3019 RMK AO2 SLP259 P0000 60000 T10671094 53005
KJST 281443Z AUTO 29009G20KT 3/4SM -SN BR BKN012 OVC018 M07/M09 A3018 RMK AO2 P0000 T10671089
KJST 281434Z AUTO 29012KT 1SM -SN BKN012 OVC016 M07/M09 A3020 RMK AO2 P0000 T10671094
KJST 281426Z AUTO 30010KT 2 1/2SM -SN BR BKN014 BKN025 OVC038 M07/M09 A3019 RMK AO2 P0000 T10671089
KJST 281354Z AUTO 30013KT 4SM -SN SCT016 BKN029 OVC039 M06/M09 A3019 RMK AO2 UPB01E02SNE01B02 SLP256 P0000 T10611094
KJST 281339Z AUTO 29013G22KT 3SM -SN SCT016 BKN030 OVC041 M06/M09 A3018 RMK AO2 UPB01E02SNE01B02 P0000 T10611094
KJST 281326Z AUTO 30014G20KT 2SM -SN SCT015 BKN024 OVC040 M06/M09 A3018 RMK AO2 VIS 1 1/2V2 1/2 UPB01E02SNE01B02 P0000 T10611089
KJST 281254Z AUTO 29014KT 7SM -SN SCT015 BKN020 OVC031 M06/M09 A3018 RMK AO2 SLP253 P0000 T10611089
KJST 281252Z AUTO 30015KT 6SM -SN SCT015 BKN020 OVC031 M06/M09 A3018 RMK AO2 P0000
KJST 281238Z AUTO 29015KT 2SM -SN BKN016 BKN021 OVC028 M06/M09 A3018 RMK AO2 P0000 T10611089
KJST 281154Z AUTO 30018G24KT 6SM -SN FEW018 BKN025 OVC029 M06/M09 A3017 RMK AO2 SLP247 P0000 60000 70007 T10611089 11044 21061 51020
KJST 281054Z AUTO 32020G25KT 3SM -SN FEW017 BKN027 OVC037 M06/M09 A3015 RMK AO2 UPB14E20SNE14B20 SLP240 P0000 T10561089
KJST 281038Z AUTO 31016G22KT 2 1/2SM -SN FEW017 BKN028 OVC050 M06/M08 A3014 RMK AO2 UPB14E20SNE14B20 P0000 T10561083
KJST 281015Z AUTO 31015KT 9SM UP FEW008 BKN033 OVC050 M06/M08 A3014 RMK AO2 UPB14SNE14 P0000 T10561083
KJST 281006Z AUTO 32017KT 7SM -SN SCT008 BKN016 OVC033 M06/M08 A3013 RMK AO2 P0000 T10561083
KJST 280954Z AUTO 30016KT 4SM -SN BR BKN006 BKN015 OVC035 M05/M07 A3013 RMK AO2 CIG 004V012 SLP232 P0000 T10501072
KJST 280944Z AUTO 30012KT 2 1/2SM -SN BR BKN006 OVC015 M05/M07 A3012 RMK AO2 P0000 T10501067
KJST 280921Z AUTO 32016G25KT 1 3/4SM -SN BR BKN009 BKN014 OVC043 M05/M07 A3011 RMK AO2 P0000 T10501072
KJST 280917Z AUTO 31016G25KT 2SM -SN BR SCT007 BKN014 OVC043 M05/M07 A3011 RMK AO2 P0000 T10501072
KJST 280858Z AUTO 30014KT 1 1/2SM -SN BR BKN009 OVC013 M04/M07 A3010 RMK AO2 P0000 T10441067
KJST 280854Z AUTO 30014G20KT 2 1/2SM -SN BR OVC011 M04/M07 A3010 RMK AO2 SNB39 SLP223 P0000 60000 T10441067 53005
KJST 280754Z AUTO 28014G20KT 10SM BKN012 OVC020 M04/M07 A3010 RMK AO2 SNB15E33 SLP221 P0000 T10441067
KJST 280654Z AUTO 28012G21KT 10SM BKN012 BKN018 OVC025 M04/M07 A3009 RMK AO2 UPB33E45SNE33 SLP217 P0000 T10441072
KJST 280649Z AUTO 28016G21KT 10SM FEW010 BKN014 OVC025 M04/M07 A3009 RMK AO2 UPB33E45SNE33 P0000
KJST 280620Z AUTO 29013G20KT 3SM -SN BR BKN009 OVC013 M04/M06 A3009 RMK AO2 CIG 007V011 P0000 T10441061
KJST 280613Z AUTO 29011KT 1 3/4SM -SN BR OVC008 M04/M06 A3008 RMK AO2 CIG 007V011 P0000 T10441061
KJST 280554Z AUTO 28013KT 2SM -SN BR OVC007 M04/M06 A3008 RMK AO2 CIG 006V011 SLP215 P0001 60002 T10441061 11028 21044 58004
KJST 280537Z AUTO 28015KT 3SM -SN BR BKN007 OVC013 M04/M06 A3009 RMK AO2 CIG 004V010 P0001 T10441061
KJST 280454Z AUTO 28010KT 1SM -SN BR BKN007 OVC011 M04/M06 A3009 RMK AO2 SLP220 P0000 T10441061 410171044
KJST 280432Z AUTO 27010G17KT 1SM -SN BR BKN005 OVC009 M04/M06 A3009 RMK AO2 P0000 T10441061
KJST 280409Z AUTO 27008KT 3/4SM -SN BR BKN005 OVC009 M04/M06 A3009 RMK AO2 P0000 T10441061
KJST 280354Z AUTO 27010G16KT 1 1/4SM -SN BR BKN006 OVC009 M04/M06 A3009 RMK AO2 SLP218 P0001 T10441061
KJST 280313Z AUTO 27007KT 1SM -SN BR BKN005 OVC009 M04/M06 A3009 RMK AO2 P0001 T10441061
KJST 280254Z AUTO 27009KT 3/4SM -SN BR OVC007 M04/M06 A3009 RMK AO2 SLP220 P0000 60000 T10441061 53006
KJST 280239Z AUTO 27009KT 1 1/4SM -SN BR BKN009 OVC015 M04/M06 A3009 RMK AO2 CIG 006V012 P0000 T10441061
KJST 280226Z AUTO 28010G18KT 1 1/2SM -SN BR OVC010 M04/M06 A3009 RMK AO2 P0000 T10441061
KJST 280216Z AUTO 29010G19KT 2SM -SN BR BKN010 OVC014 M04/M06 A3008 RMK AO2 CIG 006V012 P0000 T10441061
KJST 280204Z AUTO 28011G15KT 3SM -SN BR BKN010 OVC018 M04/M06 A3008 RMK AO2 CIG 006V015 P0000 T10441061
KJST 280154Z AUTO 28012G19KT 2 1/2SM -SN BR SCT010 BKN014 OVC021 M04/M06 A3008 RMK AO2 SLP217 P0000 T10441061
KJST 280142Z AUTO 27009G18KT 2 1/2SM -SN BR BKN013 OVC022 M04/M06 A3008 RMK AO2 P0000 T10391061
KJST 280104Z AUTO 28011KT 3SM -SN BR OVC013 M04/M06 A3008 RMK AO2 P0000 T10391061
KJST 280054Z AUTO 29015G23KT 1 1/2SM -SN BR FEW006 OVC013 M04/M06 A3007 RMK AO2 SLP213 P0000 T10391061
KJST 280052Z AUTO 30016G23KT 1 1/2SM -SN BR FEW006 OVC013 M04/M06 A3007 RMK AO2 P0000
KJST 280042Z AUTO 30014KT 2SM -SN BR SCT006 BKN013 OVC017 M04/M06 A3007 RMK AO2 P0000 T10391061
KJST 272354Z AUTO 29012KT 1 1/4SM -SN BR BKN008 OVC012 M03/M04 A3005 RMK AO2 SLP205 P0000 60002 T10281044 11017 21028 52013
KJST 272352Z AUTO 29011KT 1 3/4SM -SN BR OVC008 M03/M04 A3005 RMK AO2 P0000
KJST 272328Z AUTO 30011G21KT 5SM -SN BR BKN008 OVC011 M03/M04 A3005 RMK AO2 CIG 005V009 P0000 T10281044
KJST 272313Z AUTO 30016G23KT 2 1/2SM -SN BR OVC006 M03/M04 A3004 RMK AO2 P0000 T10281044
KJST 272254Z AUTO 30017G22KT 1SM -SN BR BKN006 OVC009 M02/M04 A3003 RMK AO2 PK WND 29026/2243 SLP198 P0001 T10221039
KJST 272251Z AUTO 30016G26KT 1SM -SN BR OVC004 M02/M04 A3003 RMK AO2 PK WND 29026/2243 P0001
KJST 272243Z AUTO 30016G26KT 2SM -SN BR OVC004 M02/M04 A3003 RMK AO2 PK WND 29026/2243 CIG 003V008 P0001 T10221039
KJST 272221Z AUTO 28008KT 4SM -SN BR OVC007 M02/M04 A3002 RMK AO2 CIG 004V010 P0000 T10221039
KJST 272208Z AUTO 29009KT 2SM -SN BR OVC005 M02/M03 A3002 RMK AO2 P0000 T10221033
KJST 272158Z AUTO 30010KT 3SM -SN BR BKN005 OVC010 M02/M03 A3002 RMK AO2 P0000 T10221033
KJST 272154Z AUTO 28009KT 1SM -SN BR BKN005 OVC010 M02/M03 A3001 RMK AO2 SLP189 P0001 T10221033
KJST 272137Z AUTO 29008KT 1/4SM +SN FZFG OVC005 M02/M03 A3001 RMK AO2 P0001 T10221033
KJST 272122Z AUTO 27006KT 1SM -SN BR BKN005 OVC016 M02/M03 A3000 RMK AO2 P0000 T10171033
KJST 272108Z AUTO 27007KT 3/4SM -SN BR FEW005 BKN014 OVC021 M02/M04 A3000 RMK AO2 P0000 T10171039
KJST 272102Z AUTO 27008KT 1 3/4SM -SN BR BKN014 BKN021 OVC031 M02/M04 A3000 RMK AO2 P0000 T10171039
KJST 272054Z AUTO 28009KT 3SM -SN BR BKN014 OVC019 M02/M04 A2999 RMK AO2 SNB38 SLP182 P0000 60000 T10171039 53007
KJST 271954Z AUTO 28010KT 10SM BKN012 OVC019 M02/M04 A2998 RMK AO2 SNB16E47 SLP176 P0000 T10171039
KJST 271941Z AUTO 29007KT 4SM -SN BR BKN013 OVC019 M02/M04 A2997 RMK AO2 SNB16 P0000 T10171039
KJST 271922Z AUTO 29007KT 6SM -SN BR SCT014 BKN018 OVC024 M02/M04 A2997 RMK AO2 SNB16 P0000 T10171039
KJST 271854Z AUTO 29008KT 8SM BKN014 OVC023 M02/M04 A2997 RMK AO2 SNB03E38 SLP174 P0000 T10171039
KJST 271837Z AUTO 28006KT 6SM -SN BR BKN014 M02/M04 A2997 RMK AO2 SNB03 P0000 T10171039
KJST 271830Z AUTO 29006KT 3SM -SN BR BKN016 OVC020 M02/M04 A2997 RMK AO2 SNB03 P0000 T10171039
KJST 271827Z AUTO 29008KT 2 1/2SM -SN BR FEW009 BKN014 OVC020 M02/M04 A2997 RMK AO2 SNB03 P0000 T10171039
KJST 271813Z AUTO 29009KT 1 3/4SM -SN BKN016 BKN021 OVC025 M02/M04 A2997 RMK AO2 SNB03 P0000 T10171044
KJST 271754Z AUTO 28011KT 9SM SCT012 BKN020 OVC032 M02/M04 A2997 RMK AO2 SNB03E46 SLP174 P0000 60003 T10171044 11017 21022 55003
KJST 271711Z AUTO 28009KT 4SM -SN BR BKN014 OVC020 M02/M04 A2997 RMK AO2 SNB03 P0000 T10221044
KJST 271654Z AUTO 29007KT 9SM FEW009 BKN015 OVC022 M02/M04 A2997 RMK AO2 SNE10 SLP173 P0000 T10221039
KJST 271639Z AUTO 29008KT 9SM SCT009 BKN016 BKN020 M02/M04 A2997 RMK AO2 SNE10 P0000 T10221039
KJST 271618Z AUTO 30008KT 4SM BR SCT007 BKN014 OVC018 M02/M04 A2997 RMK AO2 SNE10 P0000 T10221039
KJST 271604Z AUTO 31010KT 3SM -SN BR BKN007 OVC017 M02/M03 A2998 RMK AO2 CIG 005V011 P0000 T10221033
KJST 271554Z AUTO 29007KT 2SM -SN BR BKN007 BKN015 OVC024 M02/M04 A2998 RMK AO2 CIG 004V010 SLP178 P0001 T10221039
KJST 271534Z AUTO 29007KT 2 1/2SM -SN BR BKN007 BKN019 OVC043 M02/M03 A2998 RMK AO2 P0001 T10221033
KJST 271528Z AUTO 29008KT 2SM -SN BR SCT005 BKN019 OVC036 M02/M03 A2998 RMK AO2 P0001 T10221033
KJST 271525Z AUTO 30008KT 1 1/2SM -SN BR SCT005 BKN011 OVC032 M02/M03 A2997 RMK AO2 P0001 T10221033
KJST 271518Z AUTO 29007KT 3/4SM -SN BR BKN005 BKN010 OVC034 M02/M03 A2998 RMK AO2 P0001 T10221033
KJST 271454Z AUTO 29007KT 1/2SM SN FZFG BKN004 OVC009 M02/M03 A2997 RMK AO2 SLP174 P0001 60002 T10221033 51011
KJST 271411Z AUTO 29004KT 3/4SM -SN BR BKN004 OVC009 M02/M03 A2997 RMK AO2 P0000 T10221033
KJST 271354Z AUTO 30004KT 1 1/4SM -SN BR FEW004 BKN008 OVC036 M02/M03 A2996 RMK AO2 SNB22E31B35 SLP172 P0001 T10221033
KJST 271341Z AUTO 28004KT 2SM -SN BR SCT004 BKN013 OVC036 M02/M03 A2996 RMK AO2 SNB22E31B35 P0000 T10221033
KJST 271332Z AUTO 28003KT 2 1/2SM BR FEW004 SCT014 OVC036 M02/M03 A2996 RMK AO2 SNB22E31 P0000 T10221033
KJST 271303Z AUTO 31005KT 4SM BR FEW004 SCT024 OVC033 M02/M03 A2995 RMK AO2 T10221033
KJST 271254Z AUTO 32004KT 3SM BR FEW004 BKN024 OVC033 M02/M03 A2995 RMK AO2 SNB41E53 SLP168 P0000 T10221033
KJST 271230Z AUTO 31006KT 5SM BR SCT005 BKN022 OVC034 M02/M03 A2995 RMK AO2 T10221033
KJST 271225Z AUTO 30005KT 5SM BR BKN004 BKN024 OVC033 M02/M03 A2995 RMK AO2 CIG 003V009 T10221033
KJST 271154Z AUTO 30004KT 5SM BR FEW004 OVC037 M02/M03 A2994 RMK AO2 SLP162 60000 70026 I6001 T10221033 11017 21022 53005
KJST 271141Z AUTO 28005KT 6SM BR SCT003 OVC037 M02/M03 A2993 RMK AO2 T10221033
KJST 271128Z AUTO 31004KT 5SM BR BKN003 OVC037 M02/M03 A2992 RMK AO2 T10221033
KJST 271118Z AUTO 31004KT 4SM BR OVC002 M02/M03 A2992 RMK AO2 T10221033
KJST 271054Z AUTO 00000KT 4SM BR BKN003 OVC037 M02/M03 A2992 RMK AO2 SLP156 T10221028